sensor_id;sensor_type;location;lat;lon;timestamp;P1;durP1;ratioP1;P2;durP2;ratioP2
25917;SDS011;13899;51.174;4.456;2023-04-29T00:01:02;45.80;;;24.88;;
25917;SDS011;13899;51.174;4.456;2023-04-29T00:03:28;46.67;;;24.50;;
25917;SDS011;13899;51.174;4.456;2023-04-29T00:05:56;39.97;;;24.73;;
25917;SDS011;13899;51.174;4.456;2023-04-29T00:08:22;46.95;;;27.80;;
25917;SDS011;13899;51.174;4.456;2023-04-29T00:10:48;48.13;;;27.27;;
25917;SDS011;13899;51.174;4.456;2023-04-29T00:13:14;43.30;;;27.73;;
25917;SDS011;13899;51.174;4.456;2023-04-29T00:15:40;46.08;;;28.35;;
25917;SDS011;13899;51.174;4.456;2023-04-29T00:18:06;43.58;;;27.33;;
25917;SDS011;13899;51.174;4.456;2023-04-29T00:20:32;52.72;;;30.70;;
25917;SDS011;13899;51.174;4.456;2023-04-29T00:22:58;50.15;;;28.48;;
25917;SDS011;13899;51.174;4.456;2023-04-29T00:25:24;53.33;;;29.00;;
25917;SDS011;13899;51.174;4.456;2023-04-29T00:27:50;51.33;;;29.40;;
25917;SDS011;13899;51.174;4.456;2023-04-29T00:30:15;45.53;;;27.55;;
25917;SDS011;13899;51.174;4.456;2023-04-29T00:32:41;54.35;;;31.42;;
25917;SDS011;13899;51.174;4.456;2023-04-29T00:35:08;54.63;;;29.95;;
25917;SDS011;13899;51.174;4.456;2023-04-29T00:37:34;50.93;;;29.37;;
25917;SDS011;13899;51.174;4.456;2023-04-29T00:40:00;47.97;;;29.83;;
25917;SDS011;13899;51.174;4.456;2023-04-29T00:42:26;49.10;;;28.67;;
25917;SDS011;13899;51.174;4.456;2023-04-29T00:44:53;40.80;;;26.33;;
25917;SDS011;13899;51.174;4.456;2023-04-29T00:47:19;35.00;;;25.57;;
25917;SDS011;13899;51.174;4.456;2023-04-29T00:49:45;33.15;;;25.67;;
25917;SDS011;13899;51.174;4.456;2023-04-29T00:52:11;38.87;;;26.97;;
25917;SDS011;13899;51.174;4.456;2023-04-29T00:54:38;42.45;;;28.60;;
25917;SDS011;13899;51.174;4.456;2023-04-29T00:57:04;48.38;;;29.88;;
25917;SDS011;13899;51.174;4.456;2023-04-29T00:59:31;47.30;;;29.67;;
25917;SDS011;13899;51.174;4.456;2023-04-29T01:01:59;40.97;;;26.83;;
25917;SDS011;13899;51.174;4.456;2023-04-29T01:04:28;33.40;;;22.67;;
25917;SDS011;13899;51.174;4.456;2023-04-29T01:07:00;33.08;;;23.10;;
25917;SDS011;13899;51.174;4.456;2023-04-29T01:12:20;27.52;;;22.27;;
25917;SDS011;13899;51.174;4.456;2023-04-29T01:15:03;26.27;;;21.88;;
25917;SDS011;13899;51.174;4.456;2023-04-29T01:17:54;24.55;;;21.60;;
25917;SDS011;13899;51.174;4.456;2023-04-29T01:20:28;25.65;;;22.45;;
25917;SDS011;13899;51.174;4.456;2023-04-29T01:22:55;30.77;;;22.58;;
25917;SDS011;13899;51.174;4.456;2023-04-29T01:25:22;24.40;;;21.57;;
25917;SDS011;13899;51.174;4.456;2023-04-29T01:28:01;23.47;;;20.87;;
25917;SDS011;13899;51.174;4.456;2023-04-29T01:30:44;27.90;;;20.65;;
25917;SDS011;13899;51.174;4.456;2023-04-29T01:41:52;22.08;;;18.98;;
25917;SDS011;13899;51.174;4.456;2023-04-29T01:44:26;21.73;;;19.00;;
25917;SDS011;13899;51.174;4.456;2023-04-29T01:46:53;18.55;;;16.33;;
25917;SDS011;13899;51.174;4.456;2023-04-29T01:49:20;19.65;;;17.70;;
25917;SDS011;13899;51.174;4.456;2023-04-29T01:51:52;22.33;;;19.17;;
25917;SDS011;13899;51.174;4.456;2023-04-29T01:54:18;21.08;;;17.98;;
25917;SDS011;13899;51.174;4.456;2023-04-29T01:56:45;23.20;;;19.58;;
25917;SDS011;13899;51.174;4.456;2023-04-29T01:59:10;30.98;;;22.23;;
25917;SDS011;13899;51.174;4.456;2023-04-29T02:01:36;25.50;;;20.57;;
25917;SDS011;13899;51.174;4.456;2023-04-29T02:04:02;25.27;;;20.05;;
25917;SDS011;13899;51.174;4.456;2023-04-29T02:06:28;24.30;;;20.63;;
25917;SDS011;13899;51.174;4.456;2023-04-29T02:08:56;22.67;;;19.30;;
25917;SDS011;13899;51.174;4.456;2023-04-29T02:11:22;23.95;;;19.50;;
25917;SDS011;13899;51.174;4.456;2023-04-29T02:13:47;20.25;;;18.15;;
25917;SDS011;13899;51.174;4.456;2023-04-29T02:16:13;23.67;;;19.97;;
25917;SDS011;13899;51.174;4.456;2023-04-29T02:18:40;29.20;;;19.33;;
25917;SDS011;13899;51.174;4.456;2023-04-29T02:21:06;20.60;;;17.95;;
25917;SDS011;13899;51.174;4.456;2023-04-29T02:23:33;23.67;;;18.77;;
25917;SDS011;13899;51.174;4.456;2023-04-29T02:25:59;21.92;;;18.58;;
25917;SDS011;13899;51.174;4.456;2023-04-29T02:28:25;24.40;;;18.75;;
25917;SDS011;13899;51.174;4.456;2023-04-29T02:30:51;29.40;;;20.77;;
25917;SDS011;13899;51.174;4.456;2023-04-29T02:33:17;29.60;;;21.52;;
25917;SDS011;13899;51.174;4.456;2023-04-29T02:35:43;43.40;;;26.23;;
25917;SDS011;13899;51.174;4.456;2023-04-29T02:38:09;36.47;;;25.63;;
25917;SDS011;13899;51.174;4.456;2023-04-29T02:40:42;49.13;;;29.63;;
25917;SDS011;13899;51.174;4.456;2023-04-29T02:43:08;51.67;;;29.98;;
25917;SDS011;13899;51.174;4.456;2023-04-29T02:45:35;50.20;;;31.15;;
25917;SDS011;13899;51.174;4.456;2023-04-29T02:48:00;52.03;;;31.77;;
25917;SDS011;13899;51.174;4.456;2023-04-29T02:50:26;53.20;;;32.88;;
25917;SDS011;13899;51.174;4.456;2023-04-29T02:52:52;51.30;;;31.73;;
25917;SDS011;13899;51.174;4.456;2023-04-29T02:55:18;56.50;;;32.58;;
25917;SDS011;13899;51.174;4.456;2023-04-29T02:57:44;59.00;;;33.73;;
25917;SDS011;13899;51.174;4.456;2023-04-29T03:00:09;59.53;;;33.05;;
25917;SDS011;13899;51.174;4.456;2023-04-29T03:02:35;60.67;;;33.57;;
25917;SDS011;13899;51.174;4.456;2023-04-29T03:05:02;52.33;;;31.40;;
25917;SDS011;13899;51.174;4.456;2023-04-29T03:09:54;53.20;;;31.75;;
25917;SDS011;13899;51.174;4.456;2023-04-29T03:12:20;50.53;;;31.10;;
25917;SDS011;13899;51.174;4.456;2023-04-29T03:14:46;54.87;;;29.47;;
25917;SDS011;13899;51.174;4.456;2023-04-29T03:17:12;58.05;;;30.05;;
25917;SDS011;13899;51.174;4.456;2023-04-29T03:22:04;53.55;;;28.35;;
25917;SDS011;13899;51.174;4.456;2023-04-29T03:24:32;46.53;;;28.75;;
25917;SDS011;13899;51.174;4.456;2023-04-29T03:26:57;54.25;;;31.73;;
25917;SDS011;13899;51.174;4.456;2023-04-29T03:29:24;54.28;;;31.08;;
25917;SDS011;13899;51.174;4.456;2023-04-29T03:31:51;50.58;;;30.92;;
25917;SDS011;13899;51.174;4.456;2023-04-29T03:34:18;46.25;;;29.65;;
25917;SDS011;13899;51.174;4.456;2023-04-29T03:36:44;48.90;;;29.70;;
25917;SDS011;13899;51.174;4.456;2023-04-29T03:39:09;52.05;;;30.05;;
25917;SDS011;13899;51.174;4.456;2023-04-29T03:41:36;57.25;;;31.77;;
25917;SDS011;13899;51.174;4.456;2023-04-29T03:44:02;47.90;;;31.27;;
25917;SDS011;13899;51.174;4.456;2023-04-29T03:46:29;49.38;;;29.45;;
25917;SDS011;13899;51.174;4.456;2023-04-29T03:48:54;48.67;;;29.60;;
25917;SDS011;13899;51.174;4.456;2023-04-29T03:51:23;39.85;;;29.20;;
25917;SDS011;13899;51.174;4.456;2023-04-29T03:53:49;53.28;;;30.90;;
25917;SDS011;13899;51.174;4.456;2023-04-29T03:56:16;43.58;;;30.40;;
25917;SDS011;13899;51.174;4.456;2023-04-29T03:58:42;47.67;;;30.10;;
25917;SDS011;13899;51.174;4.456;2023-04-29T04:01:08;42.40;;;28.83;;
25917;SDS011;13899;51.174;4.456;2023-04-29T04:03:33;51.28;;;29.05;;
25917;SDS011;13899;51.174;4.456;2023-04-29T04:05:59;47.53;;;30.10;;
25917;SDS011;13899;51.174;4.456;2023-04-29T04:08:25;45.97;;;27.92;;
25917;SDS011;13899;51.174;4.456;2023-04-29T04:10:51;47.50;;;27.03;;
25917;SDS011;13899;51.174;4.456;2023-04-29T04:13:16;48.47;;;28.77;;
25917;SDS011;13899;51.174;4.456;2023-04-29T04:15:47;42.50;;;28.05;;
25917;SDS011;13899;51.174;4.456;2023-04-29T04:18:15;42.05;;;26.63;;
25917;SDS011;13899;51.174;4.456;2023-04-29T04:20:40;52.03;;;28.70;;
25917;SDS011;13899;51.174;4.456;2023-04-29T04:23:06;41.17;;;26.93;;
25917;SDS011;13899;51.174;4.456;2023-04-29T04:25:32;39.83;;;27.93;;
25917;SDS011;13899;51.174;4.456;2023-04-29T04:27:57;41.67;;;26.83;;
25917;SDS011;13899;51.174;4.456;2023-04-29T04:30:23;40.93;;;26.90;;
25917;SDS011;13899;51.174;4.456;2023-04-29T04:32:48;40.87;;;25.83;;
25917;SDS011;13899;51.174;4.456;2023-04-29T04:35:14;45.70;;;25.42;;
25917;SDS011;13899;51.174;4.456;2023-04-29T04:37:40;40.07;;;25.50;;
25917;SDS011;13899;51.174;4.456;2023-04-29T04:40:06;40.70;;;25.23;;
25917;SDS011;13899;51.174;4.456;2023-04-29T04:42:33;36.80;;;25.52;;
25917;SDS011;13899;51.174;4.456;2023-04-29T04:44:58;44.35;;;25.08;;
25917;SDS011;13899;51.174;4.456;2023-04-29T04:47:24;41.13;;;25.40;;
25917;SDS011;13899;51.174;4.456;2023-04-29T04:49:50;30.45;;;24.00;;
25917;SDS011;13899;51.174;4.456;2023-04-29T04:52:18;34.22;;;23.92;;
25917;SDS011;13899;51.174;4.456;2023-04-29T04:54:47;30.40;;;23.23;;
25917;SDS011;13899;51.174;4.456;2023-04-29T04:57:13;30.23;;;21.40;;
25917;SDS011;13899;51.174;4.456;2023-04-29T04:59:38;32.00;;;20.70;;
25917;SDS011;13899;51.174;4.456;2023-04-29T05:02:04;31.47;;;19.73;;
25917;SDS011;13899;51.174;4.456;2023-04-29T05:04:30;31.25;;;21.13;;
25917;SDS011;13899;51.174;4.456;2023-04-29T05:06:55;25.33;;;21.83;;
25917;SDS011;13899;51.174;4.456;2023-04-29T05:09:21;25.77;;;21.88;;
25917;SDS011;13899;51.174;4.456;2023-04-29T05:11:47;30.95;;;22.73;;
25917;SDS011;13899;51.174;4.456;2023-04-29T05:14:13;31.80;;;23.65;;
25917;SDS011;13899;51.174;4.456;2023-04-29T05:16:38;42.53;;;26.85;;
25917;SDS011;13899;51.174;4.456;2023-04-29T05:19:04;36.30;;;26.38;;
25917;SDS011;13899;51.174;4.456;2023-04-29T05:21:29;36.43;;;26.73;;
25917;SDS011;13899;51.174;4.456;2023-04-29T05:23:55;35.10;;;24.80;;
25917;SDS011;13899;51.174;4.456;2023-04-29T05:26:21;36.70;;;25.87;;
25917;SDS011;13899;51.174;4.456;2023-04-29T05:28:47;40.90;;;26.17;;
25917;SDS011;13899;51.174;4.456;2023-04-29T05:31:13;42.67;;;26.90;;
25917;SDS011;13899;51.174;4.456;2023-04-29T05:33:39;34.93;;;27.17;;
25917;SDS011;13899;51.174;4.456;2023-04-29T05:36:04;39.40;;;25.90;;
25917;SDS011;13899;51.174;4.456;2023-04-29T05:38:30;35.37;;;26.37;;
25917;SDS011;13899;51.174;4.456;2023-04-29T05:40:56;37.60;;;26.52;;
25917;SDS011;13899;51.174;4.456;2023-04-29T05:43:23;33.22;;;25.88;;
25917;SDS011;13899;51.174;4.456;2023-04-29T05:45:49;29.63;;;24.52;;
25917;SDS011;13899;51.174;4.456;2023-04-29T05:48:14;35.17;;;26.17;;
25917;SDS011;13899;51.174;4.456;2023-04-29T05:50:40;33.57;;;24.87;;
25917;SDS011;13899;51.174;4.456;2023-04-29T05:53:07;36.53;;;27.13;;
25917;SDS011;13899;51.174;4.456;2023-04-29T05:55:32;38.87;;;27.57;;
25917;SDS011;13899;51.174;4.456;2023-04-29T05:57:58;34.92;;;27.25;;
25917;SDS011;13899;51.174;4.456;2023-04-29T06:00:23;41.73;;;28.67;;
25917;SDS011;13899;51.174;4.456;2023-04-29T06:02:49;39.47;;;29.05;;
25917;SDS011;13899;51.174;4.456;2023-04-29T06:05:15;34.97;;;28.52;;
25917;SDS011;13899;51.174;4.456;2023-04-29T06:07:41;40.45;;;28.83;;
25917;SDS011;13899;51.174;4.456;2023-04-29T06:10:07;39.70;;;28.30;;
25917;SDS011;13899;51.174;4.456;2023-04-29T06:12:33;36.95;;;28.77;;
25917;SDS011;13899;51.174;4.456;2023-04-29T06:14:59;37.43;;;27.83;;
25917;SDS011;13899;51.174;4.456;2023-04-29T06:17:26;47.95;;;28.80;;
25917;SDS011;13899;51.174;4.456;2023-04-29T06:19:56;40.67;;;29.98;;
25917;SDS011;13899;51.174;4.456;2023-04-29T06:22:21;42.75;;;30.85;;
25917;SDS011;13899;51.174;4.456;2023-04-29T06:24:47;35.63;;;28.92;;
25917;SDS011;13899;51.174;4.456;2023-04-29T06:27:14;39.15;;;29.80;;
25917;SDS011;13899;51.174;4.456;2023-04-29T06:29:40;43.13;;;29.42;;
25917;SDS011;13899;51.174;4.456;2023-04-29T06:32:06;37.55;;;28.83;;
25917;SDS011;13899;51.174;4.456;2023-04-29T06:34:32;34.27;;;27.37;;
25917;SDS011;13899;51.174;4.456;2023-04-29T06:36:58;34.90;;;26.17;;
25917;SDS011;13899;51.174;4.456;2023-04-29T06:39:23;39.33;;;28.00;;
25917;SDS011;13899;51.174;4.456;2023-04-29T06:41:49;38.38;;;28.13;;
25917;SDS011;13899;51.174;4.456;2023-04-29T06:44:16;42.63;;;28.98;;
25917;SDS011;13899;51.174;4.456;2023-04-29T06:46:43;41.92;;;25.60;;
25917;SDS011;13899;51.174;4.456;2023-04-29T06:49:09;39.00;;;27.08;;
25917;SDS011;13899;51.174;4.456;2023-04-29T06:51:35;30.52;;;23.23;;
25917;SDS011;13899;51.174;4.456;2023-04-29T06:54:02;33.58;;;22.80;;
25917;SDS011;13899;51.174;4.456;2023-04-29T06:56:27;26.13;;;21.25;;
25917;SDS011;13899;51.174;4.456;2023-04-29T06:58:53;26.98;;;21.85;;
25917;SDS011;13899;51.174;4.456;2023-04-29T07:01:19;24.97;;;22.27;;
25917;SDS011;13899;51.174;4.456;2023-04-29T07:03:45;26.52;;;21.58;;
25917;SDS011;13899;51.174;4.456;2023-04-29T07:06:11;26.05;;;20.88;;
25917;SDS011;13899;51.174;4.456;2023-04-29T07:08:36;24.30;;;21.63;;
25917;SDS011;13899;51.174;4.456;2023-04-29T07:11:02;23.73;;;20.30;;
25917;SDS011;13899;51.174;4.456;2023-04-29T07:13:28;24.92;;;20.77;;
25917;SDS011;13899;51.174;4.456;2023-04-29T07:15:54;25.67;;;19.67;;
25917;SDS011;13899;51.174;4.456;2023-04-29T07:18:20;22.05;;;19.52;;
25917;SDS011;13899;51.174;4.456;2023-04-29T07:20:45;21.55;;;19.25;;
25917;SDS011;13899;51.174;4.456;2023-04-29T07:23:12;23.45;;;18.55;;
25917;SDS011;13899;51.174;4.456;2023-04-29T07:25:38;20.45;;;18.02;;
25917;SDS011;13899;51.174;4.456;2023-04-29T07:28:04;21.92;;;19.50;;
25917;SDS011;13899;51.174;4.456;2023-04-29T07:30:30;22.48;;;18.33;;
25917;SDS011;13899;51.174;4.456;2023-04-29T07:32:56;20.80;;;18.75;;
25917;SDS011;13899;51.174;4.456;2023-04-29T07:35:22;21.98;;;19.60;;
25917;SDS011;13899;51.174;4.456;2023-04-29T07:37:48;25.83;;;19.40;;
25917;SDS011;13899;51.174;4.456;2023-04-29T07:40:14;20.70;;;18.58;;
25917;SDS011;13899;51.174;4.456;2023-04-29T07:42:39;23.63;;;19.17;;
25917;SDS011;13899;51.174;4.456;2023-04-29T07:45:05;19.60;;;17.70;;
25917;SDS011;13899;51.174;4.456;2023-04-29T07:47:31;19.77;;;16.93;;
25917;SDS011;13899;51.174;4.456;2023-04-29T07:49:57;18.77;;;16.80;;
25917;SDS011;13899;51.174;4.456;2023-04-29T07:52:23;18.47;;;16.57;;
25917;SDS011;13899;51.174;4.456;2023-04-29T07:54:48;20.23;;;17.08;;
25917;SDS011;13899;51.174;4.456;2023-04-29T07:57:14;19.13;;;17.10;;
25917;SDS011;13899;51.174;4.456;2023-04-29T07:59:40;18.10;;;16.17;;
25917;SDS011;13899;51.174;4.456;2023-04-29T08:02:05;18.63;;;16.40;;
25917;SDS011;13899;51.174;4.456;2023-04-29T08:04:31;17.67;;;15.73;;
25917;SDS011;13899;51.174;4.456;2023-04-29T08:06:57;19.83;;;17.65;;
25917;SDS011;13899;51.174;4.456;2023-04-29T08:09:23;17.57;;;15.70;;
25917;SDS011;13899;51.174;4.456;2023-04-29T08:11:48;18.73;;;16.05;;
25917;SDS011;13899;51.174;4.456;2023-04-29T08:14:14;21.52;;;15.93;;
25917;SDS011;13899;51.174;4.456;2023-04-29T08:16:40;16.80;;;15.32;;
25917;SDS011;13899;51.174;4.456;2023-04-29T08:19:05;20.10;;;15.97;;
25917;SDS011;13899;51.174;4.456;2023-04-29T08:21:31;17.58;;;15.73;;
25917;SDS011;13899;51.174;4.456;2023-04-29T08:23:57;16.83;;;15.07;;
25917;SDS011;13899;51.174;4.456;2023-04-29T08:26:23;16.40;;;14.93;;
25917;SDS011;13899;51.174;4.456;2023-04-29T08:28:49;17.33;;;15.53;;
25917;SDS011;13899;51.174;4.456;2023-04-29T08:31:15;16.45;;;14.63;;
25917;SDS011;13899;51.174;4.456;2023-04-29T08:33:42;20.58;;;15.23;;
25917;SDS011;13899;51.174;4.456;2023-04-29T08:36:08;15.33;;;13.77;;
25917;SDS011;13899;51.174;4.456;2023-04-29T08:38:33;15.13;;;13.63;;
25917;SDS011;13899;51.174;4.456;2023-04-29T08:40:59;25.50;;;14.57;;
25917;SDS011;13899;51.174;4.456;2023-04-29T08:43:25;15.07;;;13.52;;
25917;SDS011;13899;51.174;4.456;2023-04-29T08:45:51;14.87;;;13.47;;
25917;SDS011;13899;51.174;4.456;2023-04-29T08:48:17;16.40;;;14.13;;
25917;SDS011;13899;51.174;4.456;2023-04-29T08:50:43;17.60;;;15.23;;
25917;SDS011;13899;51.174;4.456;2023-04-29T08:53:10;18.73;;;13.87;;
25917;SDS011;13899;51.174;4.456;2023-04-29T08:55:41;14.77;;;13.30;;
25917;SDS011;13899;51.174;4.456;2023-04-29T08:58:09;14.20;;;12.70;;
25917;SDS011;13899;51.174;4.456;2023-04-29T09:00:36;14.30;;;12.73;;
25917;SDS011;13899;51.174;4.456;2023-04-29T09:03:06;24.02;;;22.10;;
25917;SDS011;13899;51.174;4.456;2023-04-29T09:05:55;15.35;;;13.88;;
25917;SDS011;13899;51.174;4.456;2023-04-29T09:08:25;23.70;;;21.83;;
25917;SDS011;13899;51.174;4.456;2023-04-29T09:10:51;16.38;;;14.93;;
25917;SDS011;13899;51.174;4.456;2023-04-29T09:15:51;12.85;;;11.32;;
25917;SDS011;13899;51.174;4.456;2023-04-29T09:21:15;12.40;;;10.65;;
25917;SDS011;13899;51.174;4.456;2023-04-29T09:23:43;12.68;;;11.05;;
25917;SDS011;13899;51.174;4.456;2023-04-29T09:26:09;14.30;;;9.93;;
25917;SDS011;13899;51.174;4.456;2023-04-29T09:28:35;15.98;;;14.48;;
25917;SDS011;13899;51.174;4.456;2023-04-29T09:31:01;19.40;;;17.77;;
25917;SDS011;13899;51.174;4.456;2023-04-29T09:33:44;12.02;;;10.93;;
25917;SDS011;13899;51.174;4.456;2023-04-29T09:39:18;14.27;;;12.93;;
25917;SDS011;13899;51.174;4.456;2023-04-29T09:44:19;17.70;;;10.57;;
25917;SDS011;13899;51.174;4.456;2023-04-29T09:46:55;12.32;;;11.13;;
25917;SDS011;13899;51.174;4.456;2023-04-29T09:49:27;11.38;;;10.25;;
25917;SDS011;13899;51.174;4.456;2023-04-29T09:51:58;12.55;;;11.35;;
25917;SDS011;13899;51.174;4.456;2023-04-29T09:54:26;10.85;;;9.85;;
25917;SDS011;13899;51.174;4.456;2023-04-29T09:56:58;12.40;;;11.02;;
25917;SDS011;13899;51.174;4.456;2023-04-29T09:59:26;11.85;;;10.43;;
25917;SDS011;13899;51.174;4.456;2023-04-29T10:01:53;10.67;;;9.60;;
25917;SDS011;13899;51.174;4.456;2023-04-29T10:04:21;11.25;;;10.02;;
25917;SDS011;13899;51.174;4.456;2023-04-29T10:06:49;9.48;;;8.68;;
25917;SDS011;13899;51.174;4.456;2023-04-29T10:09:17;10.02;;;9.20;;
25917;SDS011;13899;51.174;4.456;2023-04-29T10:11:44;11.68;;;10.52;;
25917;SDS011;13899;51.174;4.456;2023-04-29T10:14:14;17.67;;;16.30;;
25917;SDS011;13899;51.174;4.456;2023-04-29T10:16:50;13.07;;;11.88;;
25917;SDS011;13899;51.174;4.456;2023-04-29T10:19:33;13.23;;;12.13;;
25917;SDS011;13899;51.174;4.456;2023-04-29T10:22:21;9.07;;;8.25;;
25917;SDS011;13899;51.174;4.456;2023-04-29T10:24:54;9.43;;;8.52;;
25917;SDS011;13899;51.174;4.456;2023-04-29T10:27:23;9.00;;;7.90;;
25917;SDS011;13899;51.174;4.456;2023-04-29T10:29:48;10.03;;;8.23;;
25917;SDS011;13899;51.174;4.456;2023-04-29T10:32:16;13.55;;;12.25;;
25917;SDS011;13899;51.174;4.456;2023-04-29T10:34:43;9.45;;;8.45;;
25917;SDS011;13899;51.174;4.456;2023-04-29T10:37:09;9.10;;;8.17;;
25917;SDS011;13899;51.174;4.456;2023-04-29T10:39:49;8.93;;;8.13;;
25917;SDS011;13899;51.174;4.456;2023-04-29T10:53:14;8.40;;;7.70;;
25917;SDS011;13899;51.174;4.456;2023-04-29T10:55:41;9.85;;;8.73;;
25917;SDS011;13899;51.174;4.456;2023-04-29T11:01:10;9.70;;;8.55;;
25917;SDS011;13899;51.174;4.456;2023-04-29T11:03:49;12.45;;;8.68;;
25917;SDS011;13899;51.174;4.456;2023-04-29T11:06:19;9.60;;;8.63;;
25917;SDS011;13899;51.174;4.456;2023-04-29T11:09:01;9.93;;;8.63;;
25917;SDS011;13899;51.174;4.456;2023-04-29T11:16:52;9.00;;;7.95;;
25917;SDS011;13899;51.174;4.456;2023-04-29T11:19:20;8.57;;;7.68;;
25917;SDS011;13899;51.174;4.456;2023-04-29T11:24:47;7.97;;;7.13;;
25917;SDS011;13899;51.174;4.456;2023-04-29T11:27:14;7.32;;;6.60;;
25917;SDS011;13899;51.174;4.456;2023-04-29T11:29:40;9.57;;;8.88;;
25917;SDS011;13899;51.174;4.456;2023-04-29T11:32:06;8.47;;;7.57;;
25917;SDS011;13899;51.174;4.456;2023-04-29T11:34:32;10.50;;;9.63;;
25917;SDS011;13899;51.174;4.456;2023-04-29T11:36:58;7.73;;;7.03;;
25917;SDS011;13899;51.174;4.456;2023-04-29T11:39:24;17.80;;;16.70;;
25917;SDS011;13899;51.174;4.456;2023-04-29T11:41:51;19.23;;;17.80;;
25917;SDS011;13899;51.174;4.456;2023-04-29T11:44:27;8.45;;;7.65;;
25917;SDS011;13899;51.174;4.456;2023-04-29T11:49:26;7.75;;;7.10;;
25917;SDS011;13899;51.174;4.456;2023-04-29T11:51:59;8.13;;;7.53;;
25917;SDS011;13899;51.174;4.456;2023-04-29T11:54:30;9.52;;;8.50;;
25917;SDS011;13899;51.174;4.456;2023-04-29T11:56:57;8.35;;;7.65;;
25917;SDS011;13899;51.174;4.456;2023-04-29T11:59:49;9.60;;;8.80;;
25917;SDS011;13899;51.174;4.456;2023-04-29T12:02:16;14.70;;;13.53;;
25917;SDS011;13899;51.174;4.456;2023-04-29T12:04:48;13.05;;;11.88;;
25917;SDS011;13899;51.174;4.456;2023-04-29T12:07:16;7.72;;;7.13;;
25917;SDS011;13899;51.174;4.456;2023-04-29T12:09:43;9.02;;;8.32;;
25917;SDS011;13899;51.174;4.456;2023-04-29T12:12:13;11.45;;;10.73;;
25917;SDS011;13899;51.174;4.456;2023-04-29T12:14:42;9.65;;;7.38;;
25917;SDS011;13899;51.174;4.456;2023-04-29T12:17:31;8.07;;;7.40;;
25917;SDS011;13899;51.174;4.456;2023-04-29T12:20:03;19.73;;;18.60;;
25917;SDS011;13899;51.174;4.456;2023-04-29T12:22:30;6.53;;;6.03;;
25917;SDS011;13899;51.174;4.456;2023-04-29T12:25:08;6.32;;;5.43;;
25917;SDS011;13899;51.174;4.456;2023-04-29T12:27:40;6.30;;;5.80;;
25917;SDS011;13899;51.174;4.456;2023-04-29T12:30:07;9.68;;;8.98;;
25917;SDS011;13899;51.174;4.456;2023-04-29T12:32:39;7.68;;;7.07;;
25917;SDS011;13899;51.174;4.456;2023-04-29T12:35:13;9.35;;;8.65;;
25917;SDS011;13899;51.174;4.456;2023-04-29T12:37:48;12.80;;;11.80;;
25917;SDS011;13899;51.174;4.456;2023-04-29T12:40:22;12.23;;;11.32;;
25917;SDS011;13899;51.174;4.456;2023-04-29T12:42:53;11.95;;;11.15;;
25917;SDS011;13899;51.174;4.456;2023-04-29T12:45:43;12.23;;;11.43;;
25917;SDS011;13899;51.174;4.456;2023-04-29T12:48:14;10.18;;;9.48;;
25917;SDS011;13899;51.174;4.456;2023-04-29T12:50:48;10.60;;;9.65;;
25917;SDS011;13899;51.174;4.456;2023-04-29T12:53:17;9.40;;;8.60;;
25917;SDS011;13899;51.174;4.456;2023-04-29T12:55:48;9.10;;;8.48;;
25917;SDS011;13899;51.174;4.456;2023-04-29T12:58:19;10.73;;;10.00;;
25917;SDS011;13899;51.174;4.456;2023-04-29T13:01:18;10.57;;;9.88;;
25917;SDS011;13899;51.174;4.456;2023-04-29T13:03:47;9.45;;;8.75;;
25917;SDS011;13899;51.174;4.456;2023-04-29T13:06:19;9.05;;;8.45;;
25917;SDS011;13899;51.174;4.456;2023-04-29T13:08:50;10.52;;;9.73;;
25917;SDS011;13899;51.174;4.456;2023-04-29T13:11:24;9.85;;;9.05;;
25917;SDS011;13899;51.174;4.456;2023-04-29T13:14:21;9.90;;;9.10;;
25917;SDS011;13899;51.174;4.456;2023-04-29T13:22:03;9.57;;;8.77;;
25917;SDS011;13899;51.174;4.456;2023-04-29T14:03:55;7.68;;;7.05;;
25917;SDS011;13899;51.174;4.456;2023-04-29T14:06:24;8.80;;;8.05;;
25917;SDS011;13899;51.174;4.456;2023-04-29T14:08:57;8.17;;;7.47;;
25917;SDS011;13899;51.174;4.456;2023-04-29T14:11:26;7.05;;;6.45;;
25917;SDS011;13899;51.174;4.456;2023-04-29T14:14:08;8.15;;;7.43;;
25917;SDS011;13899;51.174;4.456;2023-04-29T14:29:47;5.97;;;5.47;;
25917;SDS011;13899;51.174;4.456;2023-04-29T14:32:37;6.28;;;5.47;;
25917;SDS011;13899;51.174;4.456;2023-04-29T14:35:13;7.32;;;6.53;;
25917;SDS011;13899;51.174;4.456;2023-04-29T14:40:18;6.50;;;5.75;;
25917;SDS011;13899;51.174;4.456;2023-04-29T14:42:56;6.60;;;6.00;;
25917;SDS011;13899;51.174;4.456;2023-04-29T14:45:24;6.45;;;5.85;;
25917;SDS011;13899;51.174;4.456;2023-04-29T14:47:53;7.22;;;6.60;;
25917;SDS011;13899;51.174;4.456;2023-04-29T15:05:54;6.68;;;6.07;;
25917;SDS011;13899;51.174;4.456;2023-04-29T15:08:22;7.38;;;5.30;;
25917;SDS011;13899;51.174;4.456;2023-04-29T15:10:56;7.35;;;5.95;;
25917;SDS011;13899;51.174;4.456;2023-04-29T15:16:17;6.40;;;5.90;;
25917;SDS011;13899;51.174;4.456;2023-04-29T15:18:44;6.33;;;5.80;;
25917;SDS011;13899;51.174;4.456;2023-04-29T15:21:11;6.57;;;6.00;;
25917;SDS011;13899;51.174;4.456;2023-04-29T15:23:36;6.67;;;6.17;;
25917;SDS011;13899;51.174;4.456;2023-04-29T15:26:04;6.47;;;5.97;;
25917;SDS011;13899;51.174;4.456;2023-04-29T15:28:32;5.20;;;4.70;;
25917;SDS011;13899;51.174;4.456;2023-04-29T15:31:04;5.60;;;5.10;;
25917;SDS011;13899;51.174;4.456;2023-04-29T15:33:44;5.80;;;5.30;;
25917;SDS011;13899;51.174;4.456;2023-04-29T15:36:13;5.82;;;5.22;;
25917;SDS011;13899;51.174;4.456;2023-04-29T15:38:42;4.80;;;4.40;;
25917;SDS011;13899;51.174;4.456;2023-04-29T15:41:09;5.32;;;4.97;;
25917;SDS011;13899;51.174;4.456;2023-04-29T15:43:35;5.97;;;4.85;;
25917;SDS011;13899;51.174;4.456;2023-04-29T15:46:04;5.43;;;5.03;;
25917;SDS011;13899;51.174;4.456;2023-04-29T15:48:34;6.28;;;5.78;;
25917;SDS011;13899;51.174;4.456;2023-04-29T15:51:01;4.70;;;3.93;;
25917;SDS011;13899;51.174;4.456;2023-04-29T15:53:31;4.32;;;3.92;;
25917;SDS011;13899;51.174;4.456;2023-04-29T15:55:57;6.10;;;4.47;;
25917;SDS011;13899;51.174;4.456;2023-04-29T15:58:26;5.10;;;4.18;;
25917;SDS011;13899;51.174;4.456;2023-04-29T16:00:59;4.63;;;3.53;;
25917;SDS011;13899;51.174;4.456;2023-04-29T16:03:25;4.17;;;3.77;;
25917;SDS011;13899;51.174;4.456;2023-04-29T16:05:51;4.63;;;4.10;;
25917;SDS011;13899;51.174;4.456;2023-04-29T16:08:17;4.77;;;4.37;;
25917;SDS011;13899;51.174;4.456;2023-04-29T16:10:43;4.90;;;4.40;;
25917;SDS011;13899;51.174;4.456;2023-04-29T16:13:16;3.90;;;3.58;;
25917;SDS011;13899;51.174;4.456;2023-04-29T16:15:51;6.43;;;4.60;;
25917;SDS011;13899;51.174;4.456;2023-04-29T16:18:18;6.95;;;5.85;;
25917;SDS011;13899;51.174;4.456;2023-04-29T16:20:44;9.35;;;7.90;;
25917;SDS011;13899;51.174;4.456;2023-04-29T16:23:11;11.32;;;10.13;;
25917;SDS011;13899;51.174;4.456;2023-04-29T16:25:40;13.17;;;12.07;;
25917;SDS011;13899;51.174;4.456;2023-04-29T16:28:08;12.68;;;11.57;;
25917;SDS011;13899;51.174;4.456;2023-04-29T16:30:37;14.48;;;13.10;;
25917;SDS011;13899;51.174;4.456;2023-04-29T16:33:31;13.50;;;12.30;;
25917;SDS011;13899;51.174;4.456;2023-04-29T16:36:26;13.13;;;11.93;;
25917;SDS011;13899;51.174;4.456;2023-04-29T16:38:55;13.73;;;12.50;;
25917;SDS011;13899;51.174;4.456;2023-04-29T16:46:33;13.48;;;12.05;;
25917;SDS011;13899;51.174;4.456;2023-04-29T16:49:07;12.88;;;11.68;;
25917;SDS011;13899;51.174;4.456;2023-04-29T17:02:04;21.25;;;19.45;;